sensor_id;sensor_type;location;lat;lon;timestamp;pressure;altitude;pressure_sealevel;temperature;humidity
70930;BME280;58588;48.102;19.682;2023-04-06T00:01:11;99608.13;;;-2.64;100.00
70930;BME280;58588;48.102;19.682;2023-04-06T00:04:13;99611.13;;;-2.56;100.00
70930;BME280;58588;48.102;19.682;2023-04-06T00:07:15;99606.06;;;-2.46;100.00
70930;BME280;58588;48.102;19.682;2023-04-06T00:10:18;99607.81;;;-2.59;100.00
70930;BME280;58588;48.102;19.682;2023-04-06T00:13:21;99604.63;;;-2.64;100.00
70930;BME280;58588;48.102;19.682;2023-04-06T00:16:23;99602.94;;;-2.65;100.00
70930;BME280;58588;48.102;19.682;2023-04-06T00:19:25;99608.72;;;-2.73;100.00
70930;BME280;58588;48.102;19.682;2023-04-06T00:22:27;99603.34;;;-2.72;100.00
70930;BME280;58588;48.102;19.682;2023-04-06T00:25:29;99595.94;;;-2.79;100.00
70930;BME280;58588;48.102;19.682;2023-04-06T00:28:33;99593.31;;;-2.79;100.00
70930;BME280;58588;48.102;19.682;2023-04-06T00:31:35;99593.41;;;-2.81;100.00
70930;BME280;58588;48.102;19.682;2023-04-06T00:34:37;99575.81;;;-2.94;100.00
70930;BME280;58588;48.102;19.682;2023-04-06T00:37:40;99598.13;;;-2.86;100.00
70930;BME280;58588;48.102;19.682;2023-04-06T00:40:43;99589.78;;;-2.92;100.00
70930;BME280;58588;48.102;19.682;2023-04-06T00:43:47;99588.94;;;-2.93;100.00
70930;BME280;58588;48.102;19.682;2023-04-06T00:46:49;99586.81;;;-3.15;100.00
70930;BME280;58588;48.102;19.682;2023-04-06T00:49:51;99589.81;;;-3.21;100.00
70930;BME280;58588;48.102;19.682;2023-04-06T00:52:53;99583.03;;;-3.25;100.00
70930;BME280;58588;48.102;19.682;2023-04-06T00:55:56;99589.47;;;-3.29;100.00
70930;BME280;58588;48.102;19.682;2023-04-06T00:59:00;99592.50;;;-3.35;100.00
70930;BME280;58588;48.102;19.682;2023-04-06T01:02:02;99586.44;;;-3.23;100.00
70930;BME280;58588;48.102;19.682;2023-04-06T01:05:05;99585.59;;;-3.24;100.00
70930;BME280;58588;48.102;19.682;2023-04-06T01:08:08;99587.28;;;-3.22;100.00
70930;BME280;58588;48.102;19.682;2023-04-06T01:11:10;99591.91;;;-3.12;100.00
70930;BME280;58588;48.102;19.682;2023-04-06T01:14:13;99589.59;;;-3.04;100.00
70930;BME280;58588;48.102;19.682;2023-04-06T01:17:16;99591.69;;;-3.09;100.00
70930;BME280;58588;48.102;19.682;2023-04-06T01:20:18;99586.31;;;-3.07;100.00
70930;BME280;58588;48.102;19.682;2023-04-06T01:23:22;99588.31;;;-3.11;100.00
70930;BME280;58588;48.102;19.682;2023-04-06T01:26:24;99583.59;;;-3.20;100.00
70930;BME280;58588;48.102;19.682;2023-04-06T01:29:27;99577.53;;;-3.35;100.00
70930;BME280;58588;48.102;19.682;2023-04-06T01:32:29;99581.28;;;-3.39;100.00
70930;BME280;58588;48.102;19.682;2023-04-06T01:35:31;99574.44;;;-3.41;100.00
70930;BME280;58588;48.102;19.682;2023-04-06T01:38:35;99574.44;;;-3.41;100.00
70930;BME280;58588;48.102;19.682;2023-04-06T01:41:37;99575.66;;;-3.47;100.00
70930;BME280;58588;48.102;19.682;2023-04-06T01:44:39;99565.56;;;-3.55;100.00
70930;BME280;58588;48.102;19.682;2023-04-06T01:47:41;99563.41;;;-3.62;100.00
70930;BME280;58588;48.102;19.682;2023-04-06T01:50:43;99553.25;;;-3.68;100.00
70930;BME280;58588;48.102;19.682;2023-04-06T01:53:47;99519.69;;;-3.93;100.00
70930;BME280;58588;48.102;19.682;2023-04-06T01:56:50;99542.06;;;-3.58;100.00
70930;BME280;58588;48.102;19.682;2023-04-06T01:59:53;99543.25;;;-3.49;100.00
70930;BME280;58588;48.102;19.682;2023-04-06T02:02:55;99546.84;;;-3.50;100.00
70930;BME280;58588;48.102;19.682;2023-04-06T02:05:57;99534.16;;;-3.58;100.00
70930;BME280;58588;48.102;19.682;2023-04-06T02:09:00;99545.25;;;-3.53;100.00
70930;BME280;58588;48.102;19.682;2023-04-06T02:12:03;99536.06;;;-3.60;100.00
70930;BME280;58588;48.102;19.682;2023-04-06T02:15:06;99528.50;;;-3.66;100.00
70930;BME280;58588;48.102;19.682;2023-04-06T02:18:08;99534.78;;;-3.54;100.00
70930;BME280;58588;48.102;19.682;2023-04-06T02:21:10;99504.75;;;-3.93;100.00
70930;BME280;58588;48.102;19.682;2023-04-06T02:24:14;99538.03;;;-3.78;100.00
70930;BME280;58588;48.102;19.682;2023-04-06T02:27:16;99540.47;;;-3.74;100.00
70930;BME280;58588;48.102;19.682;2023-04-06T02:30:19;99540.06;;;-3.97;100.00
70930;BME280;58588;48.102;19.682;2023-04-06T02:33:21;99526.19;;;-3.99;100.00
70930;BME280;58588;48.102;19.682;2023-04-06T02:36:23;99536.88;;;-4.02;100.00
70930;BME280;58588;48.102;19.682;2023-04-06T02:39:26;99526.34;;;-4.16;100.00
70930;BME280;58588;48.102;19.682;2023-04-06T02:42:28;99517.78;;;-4.20;100.00
70930;BME280;58588;48.102;19.682;2023-04-06T02:45:31;99534.91;;;-3.98;100.00
70930;BME280;58588;48.102;19.682;2023-04-06T02:48:33;99517.53;;;-4.01;100.00
70930;BME280;58588;48.102;19.682;2023-04-06T02:51:36;99526.44;;;-4.04;100.00
70930;BME280;58588;48.102;19.682;2023-04-06T02:54:40;99527.28;;;-4.03;100.00
70930;BME280;58588;48.102;19.682;2023-04-06T02:57:42;99523.06;;;-4.06;100.00
70930;BME280;58588;48.102;19.682;2023-04-06T03:00:44;99521.28;;;-4.19;100.00
70930;BME280;58588;48.102;19.682;2023-04-06T03:03:47;99510.00;;;-4.07;100.00
70930;BME280;58588;48.102;19.682;2023-04-06T03:06:49;99507.72;;;-4.27;100.00
70930;BME280;58588;48.102;19.682;2023-04-06T03:09:53;99520.13;;;-4.15;100.00
70930;BME280;58588;48.102;19.682;2023-04-06T03:12:55;99519.13;;;-4.13;100.00
70930;BME280;58588;48.102;19.682;2023-04-06T03:15:57;99519.75;;;-4.09;100.00
70930;BME280;58588;48.102;19.682;2023-04-06T03:18:59;99514.81;;;-4.14;100.00
70930;BME280;58588;48.102;19.682;2023-04-06T03:22:01;99525.50;;;-4.03;100.00
70930;BME280;58588;48.102;19.682;2023-04-06T03:25:05;99518.75;;;-4.07;100.00
70930;BME280;58588;48.102;19.682;2023-04-06T03:28:08;99505.03;;;-4.12;100.00
70930;BME280;58588;48.102;19.682;2023-04-06T03:31:10;99520.44;;;-4.06;100.00
70930;BME280;58588;48.102;19.682;2023-04-06T03:34:12;99516.50;;;-4.13;100.00
70930;BME280;58588;48.102;19.682;2023-04-06T03:37:14;99519.69;;;-3.93;100.00
70930;BME280;58588;48.102;19.682;2023-04-06T03:40:17;99507.75;;;-3.99;100.00
70930;BME280;58588;48.102;19.682;2023-04-06T03:43:19;99508.97;;;-4.05;100.00
70930;BME280;58588;48.102;19.682;2023-04-06T03:46:22;99508.88;;;-4.03;100.00
70930;BME280;58588;48.102;19.682;2023-04-06T03:49:24;99515.81;;;-4.16;100.00
70930;BME280;58588;48.102;19.682;2023-04-06T03:52:26;99507.81;;;-4.15;100.00
70930;BME280;58588;48.102;19.682;2023-04-06T03:55:29;99494.66;;;-4.15;100.00
70930;BME280;58588;48.102;19.682;2023-04-06T03:58:32;99492.19;;;-4.32;100.00
70930;BME280;58588;48.102;19.682;2023-04-06T04:01:34;99489.41;;;-4.29;100.00
70930;BME280;58588;48.102;19.682;2023-04-06T04:04:36;99493.16;;;-4.33;100.00
70930;BME280;58588;48.102;19.682;2023-04-06T04:07:38;99501.03;;;-4.33;100.00
70930;BME280;58588;48.102;19.682;2023-04-06T04:10:42;99502.81;;;-4.34;100.00
70930;BME280;58588;48.102;19.682;2023-04-06T04:13:44;99493.03;;;-4.46;100.00
70930;BME280;58588;48.102;19.682;2023-04-06T04:16:46;99501.34;;;-4.38;100.00
70930;BME280;58588;48.102;19.682;2023-04-06T04:19:48;99479.72;;;-4.28;100.00
70930;BME280;58588;48.102;19.682;2023-04-06T04:22:50;99475.38;;;-4.44;100.00
70930;BME280;58588;48.102;19.682;2023-04-06T04:25:54;99451.22;;;-4.50;100.00
70930;BME280;58588;48.102;19.682;2023-04-06T04:28:56;99494.28;;;-4.23;100.00
70930;BME280;58588;48.102;19.682;2023-04-06T04:31:58;99467.03;;;-4.22;100.00
70930;BME280;58588;48.102;19.682;2023-04-06T04:35:00;99489.31;;;-3.99;100.00
70930;BME280;58588;48.102;19.682;2023-04-06T04:38:02;99476.81;;;-3.95;100.00
70930;BME280;58588;48.102;19.682;2023-04-06T04:41:06;99483.19;;;-3.85;100.00
70930;BME280;58588;48.102;19.682;2023-04-06T04:44:08;99476.97;;;-3.84;100.00
70930;BME280;58588;48.102;19.682;2023-04-06T04:47:10;99470.47;;;-3.79;100.00
70930;BME280;58588;48.102;19.682;2023-04-06T04:50:12;99474.16;;;-3.81;100.00
70930;BME280;58588;48.102;19.682;2023-04-06T04:53:14;99464.75;;;-3.85;100.00
70930;BME280;58588;48.102;19.682;2023-04-06T04:56:18;99445.69;;;-3.89;100.00
70930;BME280;58588;48.102;19.682;2023-04-06T04:59:20;99459.03;;;-3.78;100.00
70930;BME280;58588;48.102;19.682;2023-04-06T05:02:22;99462.13;;;-3.71;100.00
70930;BME280;58588;48.102;19.682;2023-04-06T05:05:24;99454.19;;;-3.57;100.00
70930;BME280;58588;48.102;19.682;2023-04-06T05:08:26;99446.28;;;-3.57;100.00
70930;BME280;58588;48.102;19.682;2023-04-06T05:11:30;99459.09;;;-3.24;100.00
70930;BME280;58588;48.102;19.682;2023-04-06T05:14:32;99447.41;;;-3.07;100.00
70930;BME280;58588;48.102;19.682;2023-04-06T05:17:35;99444.88;;;-3.08;100.00
70930;BME280;58588;48.102;19.682;2023-04-06T05:20:38;99448.06;;;-3.03;100.00
70930;BME280;58588;48.102;19.682;2023-04-06T05:23:41;99446.53;;;-2.93;100.00
70930;BME280;58588;48.102;19.682;2023-04-06T05:26:44;99427.66;;;-2.87;100.00
70930;BME280;58588;48.102;19.682;2023-04-06T05:29:46;99415.53;;;-2.64;100.00
70930;BME280;58588;48.102;19.682;2023-04-06T05:32:49;99431.91;;;-2.33;100.00
70930;BME280;58588;48.102;19.682;2023-04-06T05:35:51;99426.94;;;-2.12;100.00
70930;BME280;58588;48.102;19.682;2023-04-06T05:38:54;99432.16;;;-1.87;100.00
70930;BME280;58588;48.102;19.682;2023-04-06T05:41:57;99427.88;;;-1.64;100.00
70930;BME280;58588;48.102;19.682;2023-04-06T05:45:00;99413.66;;;-1.50;100.00
70930;BME280;58588;48.102;19.682;2023-04-06T05:48:02;99416.03;;;-1.35;100.00
70930;BME280;58588;48.102;19.682;2023-04-06T05:51:04;99422.53;;;-1.03;100.00
70930;BME280;58588;48.102;19.682;2023-04-06T05:54:07;99415.41;;;-0.79;100.00
70930;BME280;58588;48.102;19.682;2023-04-06T05:57:10;99414.47;;;-0.78;100.00
70930;BME280;58588;48.102;19.682;2023-04-06T06:00:13;99401.84;;;-0.74;100.00
70930;BME280;58588;48.102;19.682;2023-04-06T06:03:15;99414.19;;;-0.40;99.70
70930;BME280;58588;48.102;19.682;2023-04-06T06:06:18;99403.13;;;-0.34;100.00
70930;BME280;58588;48.102;19.682;2023-04-06T06:09:20;99409.84;;;-0.18;100.00
70930;BME280;58588;48.102;19.682;2023-04-06T06:12:23;99382.91;;;-0.35;100.00
70930;BME280;58588;48.102;19.682;2023-04-06T06:15:25;99407.81;;;0.08;100.00
70930;BME280;58588;48.102;19.682;2023-04-06T06:18:27;99400.84;;;0.07;100.00
70930;BME280;58588;48.102;19.682;2023-04-06T06:21:30;99405.63;;;0.24;100.00
70930;BME280;58588;48.102;19.682;2023-04-06T06:24:32;99398.97;;;0.30;100.00
70930;BME280;58588;48.102;19.682;2023-04-06T06:27:36;99393.88;;;0.60;100.00
70930;BME280;58588;48.102;19.682;2023-04-06T06:30:38;99385.47;;;0.76;95.74
70930;BME280;58588;48.102;19.682;2023-04-06T06:33:40;99393.91;;;0.81;95.52
70930;BME280;58588;48.102;19.682;2023-04-06T06:36:45;99387.41;;;1.06;96.17
70930;BME280;58588;48.102;19.682;2023-04-06T06:39:47;99401.09;;;1.22;95.10
70930;BME280;58588;48.102;19.682;2023-04-06T06:42:50;99394.16;;;1.31;94.85
70930;BME280;58588;48.102;19.682;2023-04-06T06:45:53;99396.84;;;1.61;81.74
70930;BME280;58588;48.102;19.682;2023-04-06T06:48:55;99391.59;;;1.71;76.13
70930;BME280;58588;48.102;19.682;2023-04-06T06:51:57;99393.50;;;1.90;85.84
70930;BME280;58588;48.102;19.682;2023-04-06T06:54:59;99389.97;;;2.10;80.12
70930;BME280;58588;48.102;19.682;2023-04-06T06:58:02;99392.34;;;2.13;77.79
70930;BME280;58588;48.102;19.682;2023-04-06T07:01:04;99382.25;;;2.07;69.87
70930;BME280;58588;48.102;19.682;2023-04-06T07:04:06;99396.97;;;1.81;69.07
70930;BME280;58588;48.102;19.682;2023-04-06T07:07:09;99389.44;;;1.86;69.23
70930;BME280;58588;48.102;19.682;2023-04-06T07:10:11;99391.28;;;2.35;71.36
70930;BME280;58588;48.102;19.682;2023-04-06T07:13:15;99388.03;;;2.22;67.24
70930;BME280;58588;48.102;19.682;2023-04-06T07:16:22;99396.63;;;2.35;71.00
70930;BME280;58588;48.102;19.682;2023-04-06T07:19:24;99386.59;;;2.87;69.19
70930;BME280;58588;48.102;19.682;2023-04-06T07:22:26;99388.00;;;3.20;67.70
70930;BME280;58588;48.102;19.682;2023-04-06T07:25:29;99389.66;;;3.21;68.20
70930;BME280;58588;48.102;19.682;2023-04-06T07:28:33;99384.91;;;3.25;64.41
70930;BME280;58588;48.102;19.682;2023-04-06T07:31:35;99383.63;;;3.39;64.83
70930;BME280;58588;48.102;19.682;2023-04-06T07:34:37;99384.34;;;3.21;62.91
70930;BME280;58588;48.102;19.682;2023-04-06T07:37:39;99370.19;;;3.11;62.37
70930;BME280;58588;48.102;19.682;2023-04-06T07:40:41;99367.66;;;3.29;61.48
70930;BME280;58588;48.102;19.682;2023-04-06T07:43:45;99373.22;;;3.45;61.68
70930;BME280;58588;48.102;19.682;2023-04-06T07:46:47;99377.25;;;3.69;61.68
70930;BME280;58588;48.102;19.682;2023-04-06T07:49:49;99368.09;;;3.81;63.09
70930;BME280;58588;48.102;19.682;2023-04-06T07:52:51;99371.16;;;4.14;60.13
70930;BME280;58588;48.102;19.682;2023-04-06T07:55:53;99372.94;;;4.23;59.15
70930;BME280;58588;48.102;19.682;2023-04-06T07:58:57;99370.47;;;4.12;56.21
70930;BME280;58588;48.102;19.682;2023-04-06T08:01:59;99375.22;;;4.18;57.27
70930;BME280;58588;48.102;19.682;2023-04-06T08:05:02;99374.22;;;4.46;53.57
70930;BME280;58588;48.102;19.682;2023-04-06T08:08:04;99369.69;;;4.56;57.31
70930;BME280;58588;48.102;19.682;2023-04-06T08:11:07;99370.59;;;4.83;54.64
70930;BME280;58588;48.102;19.682;2023-04-06T08:14:10;99370.31;;;4.86;54.32
70930;BME280;58588;48.102;19.682;2023-04-06T08:17:12;99373.22;;;5.36;56.36
70930;BME280;58588;48.102;19.682;2023-04-06T08:20:15;99368.19;;;5.33;53.25
70930;BME280;58588;48.102;19.682;2023-04-06T08:23:17;99372.19;;;5.29;51.69
70930;BME280;58588;48.102;19.682;2023-04-06T08:26:19;99375.22;;;5.34;51.71
70930;BME280;58588;48.102;19.682;2023-04-06T08:29:23;99372.22;;;5.37;49.65
70930;BME280;58588;48.102;19.682;2023-04-06T08:32:25;99366.38;;;5.34;52.07
70930;BME280;58588;48.102;19.682;2023-04-06T08:35:27;99362.31;;;5.30;51.78
70930;BME280;58588;48.102;19.682;2023-04-06T08:38:29;99378.16;;;5.49;51.03
70930;BME280;58588;48.102;19.682;2023-04-06T08:41:31;99373.50;;;5.51;47.52
70930;BME280;58588;48.102;19.682;2023-04-06T08:44:35;99369.31;;;5.75;48.05
70930;BME280;58588;48.102;19.682;2023-04-06T08:47:39;99368.66;;;5.81;46.98
70930;BME280;58588;48.102;19.682;2023-04-06T08:50:42;99359.72;;;5.90;45.65
70930;BME280;58588;48.102;19.682;2023-04-06T08:53:45;99361.13;;;6.02;46.61
70930;BME280;58588;48.102;19.682;2023-04-06T08:56:47;99371.81;;;5.94;44.43
70930;BME280;58588;48.102;19.682;2023-04-06T08:59:52;99349.34;;;6.21;45.90
70930;BME280;58588;48.102;19.682;2023-04-06T09:02:55;99350.53;;;6.35;45.55
70930;BME280;58588;48.102;19.682;2023-04-06T09:05:59;99352.91;;;6.38;44.07
70930;BME280;58588;48.102;19.682;2023-04-06T09:09:01;99362.69;;;6.63;46.17
70930;BME280;58588;48.102;19.682;2023-04-06T09:12:03;99355.69;;;6.79;46.48
70930;BME280;58588;48.102;19.682;2023-04-06T09:15:18;99351.72;;;6.32;49.47
70930;BME280;58588;48.102;19.682;2023-04-06T09:18:28;99357.34;;;6.71;47.76
70930;BME280;58588;48.102;19.682;2023-04-06T09:21:31;99350.59;;;6.43;47.48
70930;BME280;58588;48.102;19.682;2023-04-06T09:24:41;99355.81;;;6.61;46.42
70930;BME280;58588;48.102;19.682;2023-04-06T09:27:43;99350.47;;;6.69;45.65
70930;BME280;58588;48.102;19.682;2023-04-06T09:30:49;99345.25;;;6.51;47.67
70930;BME280;58588;48.102;19.682;2023-04-06T09:33:52;99346.75;;;6.46;44.67
70930;BME280;58588;48.102;19.682;2023-04-06T09:36:54;99344.13;;;6.70;45.50
70930;BME280;58588;48.102;19.682;2023-04-06T09:40:02;99350.81;;;6.66;44.46
70930;BME280;58588;48.102;19.682;2023-04-06T09:43:05;99343.06;;;6.47;46.86
70930;BME280;58588;48.102;19.682;2023-04-06T09:46:09;99338.38;;;6.49;45.96
70930;BME280;58588;48.102;19.682;2023-04-06T09:49:12;99345.59;;;6.56;47.99
70930;BME280;58588;48.102;19.682;2023-04-06T09:52:16;99352.56;;;6.33;47.62
70930;BME280;58588;48.102;19.682;2023-04-06T09:55:23;99358.19;;;5.61;51.96
70930;BME280;58588;48.102;19.682;2023-04-06T09:58:33;99357.56;;;5.42;55.42
70930;BME280;58588;48.102;19.682;2023-04-06T10:01:39;99372.41;;;5.18;57.76
70930;BME280;58588;48.102;19.682;2023-04-06T10:04:43;99361.97;;;5.07;60.46
70930;BME280;58588;48.102;19.682;2023-04-06T10:07:50;99368.31;;;5.50;59.61
70930;BME280;58588;48.102;19.682;2023-04-06T10:10:53;99355.94;;;4.51;61.22
70930;BME280;58588;48.102;19.682;2023-04-06T10:13:55;99360.69;;;4.30;64.38
70930;BME280;58588;48.102;19.682;2023-04-06T10:16:59;99359.47;;;5.05;63.90
70930;BME280;58588;48.102;19.682;2023-04-06T10:20:07;99349.66;;;5.14;65.41
70930;BME280;58588;48.102;19.682;2023-04-06T10:23:13;99363.50;;;5.53;68.77
70930;BME280;58588;48.102;19.682;2023-04-06T10:26:19;99369.44;;;5.65;68.82
70930;BME280;58588;48.102;19.682;2023-04-06T10:29:21;99358.50;;;5.32;69.17
70930;BME280;58588;48.102;19.682;2023-04-06T10:32:33;99356.31;;;5.28;70.44
70930;BME280;58588;48.102;19.682;2023-04-06T10:35:37;99356.66;;;5.33;68.32
70930;BME280;58588;48.102;19.682;2023-04-06T10:38:40;99358.81;;;5.55;65.56
70930;BME280;58588;48.102;19.682;2023-04-06T10:41:43;99351.13;;;5.78;65.92
70930;BME280;58588;48.102;19.682;2023-04-06T10:44:49;99352.28;;;5.76;72.38
70930;BME280;58588;48.102;19.682;2023-04-06T10:47:56;99344.34;;;5.66;75.14
70930;BME280;58588;48.102;19.682;2023-04-06T10:50:58;99345.41;;;5.73;79.81
70930;BME280;58588;48.102;19.682;2023-04-06T10:54:03;99343.94;;;5.79;81.08
70930;BME280;58588;48.102;19.682;2023-04-06T10:57:05;99342.63;;;5.83;78.48
70930;BME280;58588;48.102;19.682;2023-04-06T11:00:08;99333.59;;;5.84;80.71
70930;BME280;58588;48.102;19.682;2023-04-06T11:03:12;99336.84;;;5.70;79.79
70930;BME280;58588;48.102;19.682;2023-04-06T11:06:18;99340.75;;;5.49;80.53
70930;BME280;58588;48.102;19.682;2023-04-06T11:09:24;99334.50;;;5.41;82.62
70930;BME280;58588;48.102;19.682;2023-04-06T11:12:28;99324.59;;;5.33;82.92
70930;BME280;58588;48.102;19.682;2023-04-06T11:15:34;99335.47;;;5.40;80.57
70930;BME280;58588;48.102;19.682;2023-04-06T11:18:38;99331.88;;;5.49;81.06
70930;BME280;58588;48.102;19.682;2023-04-06T11:21:41;99335.59;;;5.56;84.58
70930;BME280;58588;48.102;19.682;2023-04-06T11:24:44;99330.31;;;5.38;84.31
70930;BME280;58588;48.102;19.682;2023-04-06T11:27:49;99324.31;;;5.44;84.58
70930;BME280;58588;48.102;19.682;2023-04-06T11:30:53;99328.22;;;5.50;85.08
70930;BME280;58588;48.102;19.682;2023-04-06T11:33:59;99319.81;;;5.45;85.46
70930;BME280;58588;48.102;19.682;2023-04-06T11:37:03;99322.88;;;5.50;85.28
70930;BME280;58588;48.102;19.682;2023-04-06T11:40:10;99312.44;;;5.64;83.82
70930;BME280;58588;48.102;19.682;2023-04-06T11:43:12;99296.31;;;5.82;81.13
70930;BME280;58588;48.102;19.682;2023-04-06T11:46:18;99310.72;;;5.89;81.33
70930;BME280;58588;48.102;19.682;2023-04-06T11:49:26;99310.03;;;5.53;82.00
70930;BME280;58588;48.102;19.682;2023-04-06T11:52:28;99298.53;;;5.61;83.79
70930;BME280;58588;48.102;19.682;2023-04-06T11:55:37;99301.47;;;5.50;83.24
70930;BME280;58588;48.102;19.682;2023-04-06T11:58:39;99291.00;;;5.30;84.70
70930;BME280;58588;48.102;19.682;2023-04-06T12:01:45;99277.03;;;5.10;89.01
70930;BME280;58588;48.102;19.682;2023-04-06T12:04:48;99306.38;;;5.28;90.62
70930;BME280;58588;48.102;19.682;2023-04-06T12:07:51;99298.59;;;5.43;87.85
70930;BME280;58588;48.102;19.682;2023-04-06T12:10:56;99287.09;;;5.51;89.55
70930;BME280;58588;48.102;19.682;2023-04-06T12:13:59;99295.97;;;5.25;92.50
70930;BME280;58588;48.102;19.682;2023-04-06T12:17:08;99285.03;;;5.10;92.54
70930;BME280;58588;48.102;19.682;2023-04-06T12:20:13;99289.69;;;5.08;93.17
70930;BME280;58588;48.102;19.682;2023-04-06T12:23:15;99284.88;;;5.12;97.42
70930;BME280;58588;48.102;19.682;2023-04-06T12:26:19;99279.81;;;5.09;86.72
70930;BME280;58588;48.102;19.682;2023-04-06T12:29:25;99287.28;;;5.23;88.65
70930;BME280;58588;48.102;19.682;2023-04-06T12:32:27;99279.78;;;5.27;90.71
70930;BME280;58588;48.102;19.682;2023-04-06T12:35:33;99268.03;;;5.20;98.13
70930;BME280;58588;48.102;19.682;2023-04-06T12:38:35;99258.47;;;5.35;97.51
70930;BME280;58588;48.102;19.682;2023-04-06T12:41:40;99269.69;;;5.13;99.02
70930;BME280;58588;48.102;19.682;2023-04-06T12:44:42;99263.09;;;5.33;100.00
70930;BME280;58588;48.102;19.682;2023-04-06T12:47:44;99266.34;;;5.10;100.00
70930;BME280;58588;48.102;19.682;2023-04-06T12:50:55;99248.31;;;5.13;100.00
70930;BME280;58588;48.102;19.682;2023-04-06T12:53:58;99250.81;;;4.88;100.00
70930;BME280;58588;48.102;19.682;2023-04-06T12:57:00;99256.09;;;4.80;100.00
70930;BME280;58588;48.102;19.682;2023-04-06T13:00:03;99248.13;;;4.44;100.00
70930;BME280;58588;48.102;19.682;2023-04-06T13:03:05;99251.84;;;4.51;100.00
70930;BME280;58588;48.102;19.682;2023-04-06T13:06:09;99249.69;;;4.55;100.00
70930;BME280;58588;48.102;19.682;2023-04-06T13:09:11;99249.56;;;4.56;100.00
70930;BME280;58588;48.102;19.682;2023-04-06T13:12:13;99245.97;;;4.48;100.00
70930;BME280;58588;48.102;19.682;2023-04-06T13:15:16;99240.22;;;4.43;100.00
70930;BME280;58588;48.102;19.682;2023-04-06T13:18:18;99246.88;;;4.56;100.00
70930;BME280;58588;48.102;19.682;2023-04-06T13:21:22;99242.75;;;4.62;100.00
70930;BME280;58588;48.102;19.682;2023-04-06T13:24:24;99237.03;;;4.57;100.00
70930;BME280;58588;48.102;19.682;2023-04-06T13:27:26;99235.44;;;4.64;100.00
70930;BME280;58588;48.102;19.682;2023-04-06T13:30:30;99234.38;;;4.57;100.00
70930;BME280;58588;48.102;19.682;2023-04-06T13:33:32;99237.13;;;4.47;100.00
70930;BME280;58588;48.102;19.682;2023-04-06T13:36:36;99238.94;;;4.47;100.00
70930;BME280;58588;48.102;19.682;2023-04-06T13:39:41;99231.50;;;4.50;100.00
70930;BME280;58588;48.102;19.682;2023-04-06T13:42:43;99227.97;;;4.50;100.00
70930;BME280;58588;48.102;19.682;2023-04-06T13:45:49;99222.69;;;4.58;100.00
70930;BME280;58588;48.102;19.682;2023-04-06T13:48:51;99227.13;;;4.49;100.00
70930;BME280;58588;48.102;19.682;2023-04-06T13:51:55;99223.97;;;4.72;100.00
70930;BME280;58588;48.102;19.682;2023-04-06T13:54:57;99225.13;;;4.69;100.00
70930;BME280;58588;48.102;19.682;2023-04-06T13:57:59;99212.38;;;4.81;100.00
70930;BME280;58588;48.102;19.682;2023-04-06T14:01:05;99215.09;;;4.89;100.00
70930;BME280;58588;48.102;19.682;2023-04-06T14:04:07;99219.84;;;5.03;100.00
70930;BME280;58588;48.102;19.682;2023-04-06T14:07:11;99215.47;;;4.94;100.00
70930;BME280;58588;48.102;19.682;2023-04-06T14:10:13;99211.38;;;5.08;100.00
70930;BME280;58588;48.102;19.682;2023-04-06T14:13:15;99219.72;;;5.05;100.00
70930;BME280;58588;48.102;19.682;2023-04-06T14:16:17;99215.00;;;4.99;100.00
70930;BME280;58588;48.102;19.682;2023-04-06T14:19:21;99217.25;;;5.12;100.00
70930;BME280;58588;48.102;19.682;2023-04-06T14:22:24;99220.53;;;5.05;100.00
70930;BME280;58588;48.102;19.682;2023-04-06T14:25:26;99217.59;;;5.17;100.00
70930;BME280;58588;48.102;19.682;2023-04-06T14:28:28;99218.28;;;4.93;100.00
70930;BME280;58588;48.102;19.682;2023-04-06T14:31:30;99220.09;;;5.10;100.00
70930;BME280;58588;48.102;19.682;2023-04-06T14:34:32;99219.38;;;5.34;100.00
70930;BME280;58588;48.102;19.682;2023-04-06T14:37:36;99225.19;;;5.29;100.00
70930;BME280;58588;48.102;19.682;2023-04-06T14:40:38;99217.47;;;5.26;100.00
70930;BME280;58588;48.102;19.682;2023-04-06T14:43:41;99224.72;;;5.34;100.00
70930;BME280;58588;48.102;19.682;2023-04-06T14:46:43;99216.63;;;5.52;100.00
70930;BME280;58588;48.102;19.682;2023-04-06T14:49:45;99217.88;;;5.40;100.00
70930;BME280;58588;48.102;19.682;2023-04-06T14:52:48;99213.88;;;5.35;100.00
70930;BME280;58588;48.102;19.682;2023-04-06T14:55:51;99223.13;;;5.49;100.00
70930;BME280;58588;48.102;19.682;2023-04-06T14:58:53;99206.97;;;5.59;100.00
70930;BME280;58588;48.102;19.682;2023-04-06T15:01:57;99212.19;;;5.34;100.00
70930;BME280;58588;48.102;19.682;2023-04-06T15:05:00;99225.22;;;5.37;100.00
70930;BME280;58588;48.102;19.682;2023-04-06T15:08:05;99230.69;;;5.28;100.00
70930;BME280;58588;48.102;19.682;2023-04-06T15:11:07;99225.75;;;5.15;100.00
70930;BME280;58588;48.102;19.682;2023-04-06T15:14:09;99230.63;;;5.20;100.00
70930;BME280;58588;48.102;19.682;2023-04-06T15:17:11;99231.84;;;5.25;100.00
70930;BME280;58588;48.102;19.682;2023-04-06T15:20:13;99226.38;;;5.09;100.00
70930;BME280;58588;48.102;19.682;2023-04-06T15:23:17;99235.59;;;5.15;100.00
70930;BME280;58588;48.102;19.682;2023-04-06T15:26:19;99240.38;;;5.03;100.00
70930;BME280;58588;48.102;19.682;2023-04-06T15:29:21;99235.56;;;5.06;100.00
70930;BME280;58588;48.102;19.682;2023-04-06T15:32:23;99234.44;;;4.91;100.00
70930;BME280;58588;48.102;19.682;2023-04-06T15:35:25;99231.91;;;4.81;100.00
70930;BME280;58588;48.102;19.682;2023-04-06T15:38:29;99241.84;;;4.97;100.00
70930;BME280;58588;48.102;19.682;2023-04-06T15:41:31;99235.56;;;5.06;100.00
70930;BME280;58588;48.102;19.682;2023-04-06T15:44:34;99228.59;;;5.14;100.00
70930;BME280;58588;48.102;19.682;2023-04-06T15:47:36;99226.56;;;5.07;100.00
70930;BME280;58588;48.102;19.682;2023-04-06T15:50:38;99237.53;;;4.78;100.00
70930;BME280;58588;48.102;19.682;2023-04-06T15:57:44;99242.75;;;4.62;100.00
70930;BME280;58588;48.102;19.682;2023-04-06T16:00:46;99254.78;;;4.66;100.00